createdAt,value
2022-11-12T00:00:47.539Z,102563.63
2022-11-12T00:03:15.424Z,102566.22
2022-11-12T00:05:43.258Z,102562.53
2022-11-12T00:08:11.171Z,102563.34
2022-11-12T00:10:39.109Z,102560.59
2022-11-12T00:13:08.407Z,102561.41
2022-11-12T00:15:36.284Z,102561.38
2022-11-12T00:18:04.272Z,102556.81
2022-11-12T00:20:32.127Z,102557.66
2022-11-12T00:23:00.111Z,102557.75
2022-11-12T00:25:28.395Z,102559.59
2022-11-12T00:27:59.576Z,102553.34
2022-11-12T00:30:28.877Z,102556.13
2022-11-12T00:32:56.744Z,102556.19
2022-11-12T00:35:24.622Z,102551.75
2022-11-12T00:37:56.726Z,102549.13
2022-11-12T00:40:25.222Z,102547.50
2022-11-12T00:42:54.841Z,102545.75
2022-11-12T00:45:22.804Z,102535.06
2022-11-12T00:47:54.918Z,102541.44
2022-11-12T00:50:22.800Z,102529.88
2022-11-12T00:52:52.876Z,102527.19
2022-11-12T00:55:20.800Z,102530.81
2022-11-12T00:57:48.636Z,102532.56
2022-11-12T01:00:17.194Z,102529.75
2022-11-12T01:02:50.448Z,102528.91
2022-11-12T01:05:20.809Z,102522.50
2022-11-12T01:07:54.747Z,102525.19
2022-11-12T01:10:23.762Z,102534.91
2022-11-12T01:12:51.630Z,102518.09
2022-11-12T01:15:19.632Z,102521.59
2022-11-12T01:17:47.527Z,102523.38
2022-11-12T01:20:15.506Z,102515.41
2022-11-12T01:22:44.773Z,102509.28
2022-11-12T01:25:12.598Z,102512.97
2022-11-12T01:27:40.474Z,102505.91
2022-11-12T01:30:09.463Z,102503.34
2022-11-12T01:32:37.899Z,102500.03
2022-11-12T01:35:06.749Z,102489.53
2022-11-12T01:37:34.611Z,102491.59
2022-11-12T01:40:03.962Z,102494.63
2022-11-12T01:42:32.264Z,102497.50
2022-11-12T01:45:00.169Z,102483.44
2022-11-12T01:47:28.877Z,102491.50
2022-11-12T01:49:57.993Z,102495.31
2022-11-12T01:52:28.626Z,102487.47
2022-11-12T01:54:57.534Z,102492.94
2022-11-12T01:57:33.459Z,102487.84
2022-11-12T02:00:06.196Z,102491.78
2022-11-12T02:02:34.202Z,102483.19
2022-11-12T02:05:02.144Z,102490.81
2022-11-12T02:07:30.048Z,102486.66
2022-11-12T02:09:57.898Z,102495.00
2022-11-12T02:12:44.953Z,102480.97
2022-11-12T02:15:12.848Z,102478.75
2022-11-12T02:17:40.722Z,102476.31
2022-11-12T02:20:10.907Z,102472.94
2022-11-12T02:22:40.143Z,102470.47
2022-11-12T02:25:09.779Z,102464.44
2022-11-12T02:27:37.692Z,102462.00
2022-11-12T02:30:06.487Z,102457.75
2022-11-12T02:32:34.645Z,102456.13
2022-11-12T02:35:02.547Z,102455.44
2022-11-12T02:37:30.448Z,102447.56
2022-11-12T02:39:59.797Z,102451.22
2022-11-12T02:42:27.662Z,102444.13
2022-11-12T02:44:55.496Z,102437.00
2022-11-12T02:47:23.356Z,102445.94
2022-11-12T02:49:51.212Z,102443.25
2022-11-12T02:52:19.139Z,102436.16
2022-11-12T02:54:47.020Z,102438.00
2022-11-12T02:57:16.300Z,102431.78
2022-11-12T02:59:44.188Z,102421.28
2022-11-12T03:02:12.034Z,102429.25
2022-11-12T03:04:39.911Z,102410.69
2022-11-12T03:07:07.840Z,102419.63
2022-11-12T03:09:35.766Z,102416.22
2022-11-12T03:12:03.736Z,102417.28
2022-11-12T03:14:33.022Z,102423.66
2022-11-12T03:17:00.934Z,102415.78
2022-11-12T03:19:28.777Z,102412.31
2022-11-12T03:21:56.661Z,102419.50
2022-11-12T03:24:24.580Z,102415.13
2022-11-12T03:26:52.605Z,102406.34
2022-11-12T03:29:20.473Z,102404.63
2022-11-12T03:31:49.728Z,102401.22
2022-11-12T03:34:17.611Z,102412.00
2022-11-12T03:36:45.498Z,102409.44
2022-11-12T03:39:13.362Z,102412.22
2022-11-12T03:41:41.237Z,102398.94
2022-11-12T03:44:09.121Z,102404.22
2022-11-12T03:46:41.532Z,102400.75
2022-11-12T03:49:13.410Z,102396.34
2022-11-12T03:51:41.284Z,102393.75
2022-11-12T03:54:09.159Z,102396.44
2022-11-12T03:56:37.321Z,102400.94
2022-11-12T03:59:05.521Z,102386.16
2022-11-12T04:01:33.681Z,102407.22
2022-11-12T04:04:01.616Z,102405.47
2022-11-12T04:06:48.226Z,102414.31
2022-11-12T04:09:16.120Z,102402.84
2022-11-12T04:11:44.305Z,102403.75
2022-11-12T04:14:11.214Z,102408.16
2022-11-12T04:16:56.630Z,102407.22
2022-11-12T04:19:41.977Z,102409.03
2022-11-12T04:22:11.933Z,102403.69
2022-11-12T04:24:58.216Z,102405.41
2022-11-12T04:27:27.386Z,102409.72
2022-11-12T04:30:12.500Z,102407.81
2022-11-12T04:32:41.393Z,102406.00
2022-11-12T04:35:09.887Z,102405.03
2022-11-12T04:37:48.548Z,102403.19
2022-11-12T04:40:34.883Z,102398.69
2022-11-12T04:43:20.431Z,102403.13
2022-11-12T04:45:49.434Z,102396.81
2022-11-12T04:48:17.413Z,102408.94
2022-11-12T04:50:45.894Z,102402.56
2022-11-12T04:53:15.246Z,102401.47
2022-11-12T04:55:43.126Z,102400.44
2022-11-12T04:58:11.009Z,102406.41
2022-11-12T05:00:38.899Z,102403.56
2022-11-12T05:03:06.851Z,102404.31
2022-11-12T05:05:34.759Z,102392.66
2022-11-12T05:08:02.632Z,102392.50
2022-11-12T05:10:32.006Z,102390.72
2022-11-12T05:12:59.906Z,102388.19
2022-11-12T05:15:27.820Z,102386.50
2022-11-12T05:17:55.710Z,102378.78
2022-11-12T05:20:23.638Z,102384.31
2022-11-12T05:23:05.729Z,102378.31
2022-11-12T05:25:36.352Z,102381.25
2022-11-12T05:28:06.711Z,102385.03
2022-11-12T05:30:35.230Z,102383.38
2022-11-12T05:33:03.162Z,102378.19
2022-11-12T05:35:31.093Z,102375.66
2022-11-12T05:37:58.938Z,102380.25
2022-11-12T05:40:26.823Z,102384.72
2022-11-12T05:42:56.199Z,102376.72
2022-11-12T05:45:24.074Z,102370.56
2022-11-12T05:47:51.986Z,102366.28
2022-11-12T05:50:19.851Z,102379.59
2022-11-12T05:52:47.764Z,102378.69
2022-11-12T05:55:15.910Z,102373.41
2022-11-12T05:57:43.822Z,102373.41
2022-11-12T06:00:14.151Z,102365.47
2022-11-12T06:02:43.134Z,102355.78
2022-11-12T06:05:11.173Z,102361.13
2022-11-12T06:07:39.034Z,102353.19
2022-11-12T06:10:07.754Z,102351.53
2022-11-12T06:12:35.607Z,102347.94
2022-11-12T06:15:03.535Z,102346.22
2022-11-12T06:17:32.773Z,102358.75
2022-11-12T06:20:00.723Z,102349.84
2022-11-12T06:22:28.671Z,102343.56
2022-11-12T06:24:56.547Z,102337.38
2022-11-12T06:27:24.708Z,102334.66
2022-11-12T06:29:52.647Z,102343.56
2022-11-12T06:32:20.546Z,102333.72
2022-11-12T06:34:50.583Z,102331.09
2022-11-12T06:37:18.443Z,102334.69
2022-11-12T06:39:46.355Z,102334.72
2022-11-12T06:42:14.241Z,102331.16
2022-11-12T06:44:42.088Z,102335.59
2022-11-12T06:47:10.063Z,102333.72
2022-11-12T06:49:38.016Z,102340.75
2022-11-12T06:52:08.015Z,102338.13
2022-11-12T06:54:37.853Z,102348.00
2022-11-12T06:57:05.778Z,102347.13
2022-11-12T06:59:33.711Z,102348.00
2022-11-12T07:02:01.590Z,102351.44
2022-11-12T07:04:29.576Z,102349.59
2022-11-12T07:06:57.537Z,102345.97
2022-11-12T07:09:26.872Z,102354.78
2022-11-12T07:11:54.732Z,102355.69
2022-11-12T07:14:22.610Z,102345.88
2022-11-12T07:16:50.554Z,102352.03
2022-11-12T07:19:18.443Z,102353.84
2022-11-12T07:21:46.381Z,102356.47
2022-11-12T07:24:14.274Z,102355.59
2022-11-12T07:26:47.469Z,102367.06
2022-11-12T07:29:30.084Z,102368.84
2022-11-12T07:32:06.164Z,102371.50
2022-11-12T07:34:34.384Z,102376.78
2022-11-12T07:37:02.314Z,102376.78
2022-11-12T07:39:30.271Z,102382.19
2022-11-12T07:41:59.773Z,102381.28
2022-11-12T07:44:27.631Z,102382.19
2022-11-12T07:46:55.565Z,102384.78
2022-11-12T07:49:23.462Z,102386.56
2022-11-12T07:51:51.364Z,102393.75
2022-11-12T07:54:19.562Z,102393.75
2022-11-12T07:56:47.435Z,102372.53
2022-11-12T07:59:16.680Z,102386.50
2022-11-12T08:01:45.413Z,102382.91
2022-11-12T08:04:14.119Z,102386.31
2022-11-12T08:06:42.234Z,102393.31
2022-11-12T08:09:10.613Z,102385.19
2022-11-12T08:11:38.559Z,102385.94
2022-11-12T08:14:06.537Z,102389.41
2022-11-12T08:16:35.924Z,102390.16
2022-11-12T08:19:03.795Z,102383.72
2022-11-12T08:21:31.665Z,102387.94
2022-11-12T08:23:59.616Z,102388.56
2022-11-12T08:26:27.579Z,102387.44
2022-11-12T08:28:55.562Z,102380.09
2022-11-12T08:31:23.590Z,102372.75
2022-11-12T08:33:52.903Z,102378.69
2022-11-12T08:36:20.848Z,102370.38
2022-11-12T08:38:48.795Z,102376.38
2022-11-12T08:41:17.719Z,102378.00
2022-11-12T08:43:45.627Z,102368.78
2022-11-12T08:46:13.629Z,102375.63
2022-11-12T08:48:41.579Z,102371.75
2022-11-12T08:51:10.855Z,102372.31
2022-11-12T08:53:38.770Z,102366.63
2022-11-12T08:56:06.954Z,102371.69
2022-11-12T08:58:34.863Z,102366.13
2022-11-12T09:01:05.515Z,102357.94
2022-11-12T09:03:33.414Z,102367.25
2022-11-12T09:06:03.854Z,102352.81
2022-11-12T09:08:34.181Z,102351.56
2022-11-12T09:11:02.056Z,102345.78
2022-11-12T09:13:30.065Z,102347.31
2022-11-12T09:16:02.577Z,102342.56
2022-11-12T09:18:35.153Z,102329.84
2022-11-12T09:21:04.275Z,102330.34
2022-11-12T09:23:34.768Z,102320.38
2022-11-12T09:26:02.812Z,102325.25
2022-11-12T09:28:30.817Z,102319.63
2022-11-12T09:30:58.891Z,102315.75
2022-11-12T09:33:28.314Z,102312.88
2022-11-12T09:35:56.638Z,102315.25
2022-11-12T09:38:24.907Z,102313.09
2022-11-12T09:41:19.029Z,102324.44
2022-11-12T09:43:49.863Z,102301.16
2022-11-12T09:46:28.022Z,102308.75
2022-11-12T09:49:01.655Z,102319.03
2022-11-12T09:51:31.395Z,102301.69
2022-11-12T09:53:59.798Z,102305.00
2022-11-12T09:56:29.897Z,102306.56
2022-11-12T09:58:57.869Z,102312.63
2022-11-12T10:01:38.849Z,102296.22
2022-11-12T10:04:17.192Z,102291.50
2022-11-12T10:06:46.891Z,102273.50
2022-11-12T10:09:17.606Z,102281.19
2022-11-12T10:12:14.550Z,102279.19
2022-11-12T10:14:50.178Z,102272.50
2022-11-12T10:17:19.948Z,102279.34
2022-11-12T10:20:01.246Z,102274.53
2022-11-12T10:22:40.861Z,102290.31
2022-11-12T10:25:15.699Z,102295.19
2022-11-12T10:27:45.647Z,102287.63
2022-11-12T10:30:20.014Z,102297.19
2022-11-12T10:32:50.671Z,102302.09
2022-11-12T10:35:19.693Z,102304.88
2022-11-12T10:37:49.328Z,102306.59
2022-11-12T10:40:29.686Z,102309.16
2022-11-12T10:42:59.968Z,102300.50
2022-11-12T10:45:27.873Z,102307.91
2022-11-12T10:47:55.800Z,102299.06
2022-11-12T10:50:24.045Z,102295.00
2022-11-12T10:52:56.676Z,102292.94
2022-11-12T10:55:25.217Z,102294.72
2022-11-12T10:58:08.632Z,102290.47
2022-11-12T11:00:36.576Z,102294.09
2022-11-12T11:03:07.028Z,102297.75
2022-11-12T11:05:35.883Z,102290.63
2022-11-12T11:08:03.864Z,102288.56
2022-11-12T11:10:32.500Z,102283.03
2022-11-12T11:13:21.208Z,102282.69
2022-11-12T11:16:00.026Z,102284.19
2022-11-12T11:18:28.615Z,102285.84
2022-11-12T11:21:02.736Z,102283.81
2022-11-12T11:23:32.421Z,102274.84
2022-11-12T11:26:19.647Z,102271.25
2022-11-12T11:28:51.132Z,102264.09
2022-11-12T11:31:22.144Z,102268.78
2022-11-12T11:33:50.982Z,102270.59
2022-11-12T11:36:23.213Z,102275.91
2022-11-12T11:38:57.536Z,102260.81
2022-11-12T11:41:33.063Z,102263.47
2022-11-12T11:44:13.642Z,102270.84
2022-11-12T11:46:48.190Z,102255.94
2022-11-12T11:49:28.442Z,102263.56
2022-11-12T11:51:58.317Z,102252.25
2022-11-12T11:54:52.688Z,102257.25
2022-11-12T11:57:22.669Z,102251.84
2022-11-12T12:00:02.813Z,102246.66
2022-11-12T12:02:40.400Z,102245.66
2022-11-12T12:05:12.970Z,102238.84
2022-11-12T12:07:44.370Z,102243.53
2022-11-12T12:10:18.520Z,102233.13
2022-11-12T12:12:52.727Z,102207.19
2022-11-12T12:15:45.460Z,102221.81
2022-11-12T12:18:18.354Z,102219.72
2022-11-12T12:20:49.667Z,102215.44
2022-11-12T12:23:23.112Z,102200.34
2022-11-12T12:25:51.419Z,102215.97
2022-11-12T12:28:27.058Z,102225.88
2022-11-12T12:30:59.690Z,102216.41
2022-11-12T12:33:30.243Z,102212.03
2022-11-12T12:36:00.605Z,102224.88
2022-11-12T12:38:30.678Z,102219.69
2022-11-12T12:41:01.996Z,102218.97
2022-11-12T12:43:33.292Z,102225.31
2022-11-12T12:46:02.578Z,102226.72
2022-11-12T12:48:31.411Z,102227.66
2022-11-12T12:50:59.425Z,102223.66
2022-11-12T12:53:34.600Z,102223.94
2022-11-12T12:56:03.162Z,102221.91
2022-11-12T12:58:31.749Z,102206.16
2022-11-12T13:01:05.175Z,102204.22
2022-11-12T13:03:53.325Z,102198.34
2022-11-12T13:06:28.983Z,102185.97
2022-11-12T13:08:59.126Z,102172.88
2022-11-12T13:12:06.404Z,102176.06
2022-11-12T13:15:05.627Z,102184.16
2022-11-12T13:17:51.309Z,102170.47
2022-11-12T13:20:40.646Z,102175.84
2022-11-12T13:24:04.644Z,102177.00
2022-11-12T13:26:52.555Z,102161.16
2022-11-12T13:29:23.191Z,102164.94
2022-11-12T13:31:51.155Z,102160.22
2022-11-12T13:34:26.159Z,102157.53
2022-11-12T13:36:57.443Z,102150.66
2022-11-12T13:39:25.352Z,102146.41
2022-11-12T13:42:15.519Z,102146.50
2022-11-12T13:44:43.497Z,102140.16
2022-11-12T13:47:13.891Z,102141.00
2022-11-12T13:49:44.158Z,102142.88
2022-11-12T13:52:13.223Z,102130.25
2022-11-12T13:54:41.101Z,102131.09
2022-11-12T13:57:28.873Z,102129.78
2022-11-12T14:00:24.415Z,102126.56
2022-11-12T14:02:54.827Z,102129.78
2022-11-12T14:05:24.732Z,102132.47
2022-11-12T14:08:10.795Z,102123.03
2022-11-12T14:10:45.892Z,102124.56
2022-11-12T14:13:40.947Z,102103.25
2022-11-12T14:16:26.767Z,102096.09
2022-11-12T14:19:06.514Z,102104.59
2022-11-12T14:21:35.773Z,102088.47
2022-11-12T14:24:03.888Z,102097.50
2022-11-12T14:26:36.926Z,102093.13
2022-11-12T14:29:04.799Z,102092.41
2022-11-12T14:31:32.893Z,102101.34
2022-11-12T14:34:21.834Z,102103.91
2022-11-12T14:36:52.768Z,102104.31
2022-11-12T14:39:20.648Z,102107.44
2022-11-12T14:41:49.439Z,102105.66
2022-11-12T14:44:19.251Z,102093.78
2022-11-12T14:46:48.478Z,102105.06
2022-11-12T14:49:19.413Z,102104.91
2022-11-12T14:51:48.928Z,102102.50
2022-11-12T14:54:22.476Z,102101.13
2022-11-12T14:56:50.423Z,102098.94
2022-11-12T14:59:18.316Z,102087.56
2022-11-12T15:04:54.709Z,102091.28
2022-11-12T15:07:26.972Z,102069.88
2022-11-12T15:09:56.270Z,102091.88
2022-11-12T15:12:25.249Z,102093.81
2022-11-12T15:14:53.340Z,102093.59
2022-11-12T15:17:28.452Z,102091.53
2022-11-12T15:20:01.092Z,102079.31
2022-11-12T15:22:29.080Z,102084.78
2022-11-12T15:24:58.588Z,102085.84
2022-11-12T15:27:35.810Z,102076.88
2022-11-12T15:30:20.408Z,102076.13
2022-11-12T15:32:48.352Z,102083.31
2022-11-12T15:35:35.677Z,102090.53
2022-11-12T15:38:04.698Z,102077.53
2022-11-12T15:40:35.152Z,102072.69
2022-11-12T15:43:03.062Z,102067.56
2022-11-12T15:45:31.145Z,102068.00
2022-11-12T15:47:58.995Z,102066.84
2022-11-12T15:50:26.935Z,102064.94
2022-11-12T15:52:55.392Z,102058.63
2022-11-12T15:55:23.302Z,102052.22
2022-11-12T15:57:53.268Z,102052.88
2022-11-12T16:00:22.028Z,102056.19
2022-11-12T16:02:53.108Z,102045.09
2022-11-12T16:05:21.016Z,102037.53
2022-11-12T16:07:48.914Z,102046.91
2022-11-12T16:10:17.720Z,102037.59
2022-11-12T16:12:46.099Z,102038.88
2022-11-12T16:15:16.003Z,102041.97
2022-11-12T16:17:43.868Z,102043.34
2022-11-12T16:20:16.149Z,102027.63
2022-11-12T16:22:44.187Z,102037.75
2022-11-12T16:25:13.432Z,102031.66
2022-11-12T16:27:41.343Z,102032.72
2022-11-12T16:30:16.392Z,102033.72
2022-11-12T16:32:44.406Z,102034.84
2022-11-12T16:35:12.279Z,102013.63
2022-11-12T16:37:40.427Z,102023.53
2022-11-12T16:40:10.866Z,102011.97
2022-11-12T16:42:45.455Z,102010.31
2022-11-12T16:45:15.881Z,102012.28
2022-11-12T16:47:45.263Z,102002.53
2022-11-12T16:50:13.493Z,102012.38
2022-11-12T16:52:41.472Z,102008.09
2022-11-12T16:55:10.383Z,102008.25
2022-11-12T16:57:38.734Z,102010.94
2022-11-12T17:00:07.627Z,102016.47
2022-11-12T17:02:40.719Z,102019.63
2022-11-12T17:05:16.101Z,102020.34
2022-11-12T17:07:44.120Z,102027.63
2022-11-12T17:10:12.653Z,102018.81
2022-11-12T17:12:40.591Z,102030.69
2022-11-12T17:15:09.565Z,102028.00
2022-11-12T17:17:38.827Z,102035.34
2022-11-12T17:20:07.798Z,102030.91
2022-11-12T17:22:35.743Z,102036.53
2022-11-12T17:25:03.634Z,102037.53
2022-11-12T17:27:31.588Z,102039.44
2022-11-12T17:30:00.010Z,102051.19
2022-11-12T17:32:27.994Z,102052.22
2022-11-12T17:34:57.252Z,102069.28
2022-11-12T17:37:25.346Z,102070.16
2022-11-12T17:39:53.325Z,102058.47
2022-11-12T17:42:21.247Z,102069.84
2022-11-12T17:44:49.144Z,102068.97
2022-11-12T17:47:17.056Z,102064.56
2022-11-12T17:49:45.077Z,102057.59
2022-11-12T17:52:14.461Z,102079.94
2022-11-12T17:54:42.880Z,102069.38
2022-11-12T17:57:10.902Z,102061.47
2022-11-12T17:59:38.805Z,102060.66
2022-11-12T18:02:06.663Z,102067.06
2022-11-12T18:04:35.271Z,102063.81
2022-11-12T18:07:03.197Z,102070.09
2022-11-12T18:09:32.728Z,102064.94
2022-11-12T18:12:01.167Z,102063.22
2022-11-12T18:14:29.066Z,102058.97
2022-11-12T18:16:59.180Z,102064.38
2022-11-12T18:19:27.052Z,102062.78
2022-11-12T18:21:56.968Z,102065.56
2022-11-12T18:24:25.549Z,102054.16
2022-11-12T18:26:54.793Z,102058.78
2022-11-12T18:29:22.655Z,102057.03
2022-11-12T18:31:50.570Z,102030.06
2022-11-12T18:34:18.480Z,102057.41
2022-11-12T18:36:46.347Z,102056.59
2022-11-12T18:39:14.824Z,102053.19
2022-11-12T18:41:42.703Z,102058.69
2022-11-12T18:44:11.987Z,102056.97
2022-11-12T18:46:39.875Z,102060.75
2022-11-12T18:49:08.008Z,102057.09
2022-11-12T18:51:36.306Z,102051.91
2022-11-12T18:54:04.644Z,102051.03
2022-11-12T18:56:32.557Z,102055.59
2022-11-12T18:59:00.578Z,102041.22
2022-11-12T19:01:30.012Z,102043.09
2022-11-12T19:03:58.114Z,102036.03
2022-11-12T19:06:26.070Z,102044.13
2022-11-12T19:08:59.316Z,102045.94
2022-11-12T19:11:27.279Z,102047.00
2022-11-12T19:13:55.350Z,102022.56
2022-11-12T19:16:23.950Z,102038.25
2022-11-12T19:18:53.273Z,102044.31
2022-11-12T19:21:22.107Z,102050.66
2022-11-12T19:23:53.804Z,102042.59
2022-11-12T19:26:22.671Z,102041.72
2022-11-12T19:28:50.767Z,102039.91
2022-11-12T19:31:19.467Z,102034.47
2022-11-12T19:33:47.843Z,102034.41
2022-11-12T19:36:18.130Z,102037.16
2022-11-12T19:38:46.054Z,102038.97
2022-11-12T19:41:19.355Z,102037.16
2022-11-12T19:43:47.817Z,102046.81
2022-11-12T19:46:15.772Z,102047.81
2022-11-12T19:48:43.837Z,102046.97
2022-11-12T19:51:12.078Z,102048.75
2022-11-12T19:53:44.323Z,102054.13
2022-11-12T19:56:14.121Z,102047.81
2022-11-12T19:58:45.230Z,102049.69
2022-11-12T20:01:14.436Z,102047.88
2022-11-12T20:03:42.426Z,102052.47
2022-11-12T20:06:11.958Z,102050.66
2022-11-12T20:08:41.733Z,102056.03
2022-11-12T20:11:10.022Z,102056.94
2022-11-12T20:13:37.923Z,102062.38
2022-11-12T20:16:09.077Z,102059.84
2022-11-12T20:18:36.968Z,102057.25
2022-11-12T20:21:05.624Z,102054.63
2022-11-12T20:23:33.940Z,102055.56
2022-11-12T20:26:06.564Z,102058.25
2022-11-12T20:28:34.514Z,102056.56
2022-11-12T20:31:03.718Z,102050.28
2022-11-12T20:33:31.657Z,102058.44
2022-11-12T20:36:04.798Z,102052.22
2022-11-12T20:38:32.651Z,102059.31
2022-11-12T20:41:02.675Z,102056.84
2022-11-12T20:43:32.006Z,102063.97
2022-11-12T20:45:59.954Z,102059.63
2022-11-12T20:48:28.001Z,102068.50
2022-11-12T20:51:22.782Z,102067.88
2022-11-12T20:53:55.962Z,102065.09
2022-11-12T20:56:27.860Z,102055.38
2022-11-12T20:58:57.131Z,102069.59
2022-11-12T21:01:25.426Z,102063.44
2022-11-12T21:03:53.591Z,102075.13
2022-11-12T21:06:22.793Z,102069.88
2022-11-12T21:08:50.659Z,102065.44
2022-11-12T21:11:19.678Z,102059.28
2022-11-12T21:13:47.645Z,102071.75
2022-11-12T21:16:17.059Z,102071.84
2022-11-12T21:18:45.013Z,102072.69
2022-11-12T21:21:14.419Z,102066.59
2022-11-12T21:23:43.549Z,102070.22
2022-11-12T21:26:13.546Z,102062.03
2022-11-12T21:28:43.203Z,102058.56
2022-11-12T21:31:11.974Z,102061.25
2022-11-12T21:33:41.284Z,102063.31
2022-11-12T21:36:15.879Z,102066.00
2022-11-12T21:38:44.436Z,102061.72
2022-11-12T21:41:13.576Z,102061.72
2022-11-12T21:43:43.150Z,102051.00
2022-11-12T21:46:11.581Z,102059.88
2022-11-12T21:48:39.413Z,102049.13
2022-11-12T21:51:09.467Z,102052.72
2022-11-12T21:53:37.352Z,102047.38
2022-11-12T21:56:05.511Z,102038.41
2022-11-12T21:58:33.517Z,102050.91
2022-11-12T22:01:08.916Z,102057.97
2022-11-12T22:03:36.850Z,102055.34
2022-11-12T22:06:04.927Z,102050.78
2022-11-12T22:08:34.354Z,102058.84
2022-11-12T22:11:03.580Z,102059.75
2022-11-12T22:13:31.482Z,102062.38
2022-11-12T22:15:59.466Z,102057.97
2022-11-12T22:18:27.544Z,102062.44
2022-11-12T22:20:59.170Z,102051.72
2022-11-12T22:23:27.137Z,102060.66
2022-11-12T22:25:58.800Z,102053.53
2022-11-12T22:28:27.037Z,102047.38
2022-11-12T22:30:55.137Z,102046.56
2022-11-12T22:33:23.035Z,102050.19
2022-11-12T22:35:50.981Z,102044.84
2022-11-12T22:38:18.819Z,102045.75
2022-11-12T22:40:46.709Z,102043.16
2022-11-12T22:43:15.971Z,102036.91
2022-11-12T22:45:43.844Z,102033.38
2022-11-12T22:48:11.742Z,102034.31
2022-11-12T22:50:39.679Z,102027.38
2022-11-12T22:53:07.572Z,102029.06
2022-11-12T22:55:35.576Z,102029.13
2022-11-12T22:58:03.474Z,102026.44
2022-11-12T23:00:33.179Z,102023.81
2022-11-12T23:03:01.054Z,102026.50
2022-11-12T23:05:29.012Z,102024.78
2022-11-12T23:07:56.868Z,102031.94
2022-11-12T23:10:24.714Z,102038.16
2022-11-12T23:12:52.599Z,102042.72
2022-11-12T23:15:20.453Z,102032.81
2022-11-12T23:17:49.958Z,102032.84
2022-11-12T23:20:18.023Z,102031.94
2022-11-12T23:22:45.928Z,102032.00
2022-11-12T23:25:13.815Z,102031.22
2022-11-12T23:27:41.771Z,102029.38
2022-11-12T23:30:10.551Z,102032.94
2022-11-12T23:32:38.421Z,102029.34
2022-11-12T23:35:08.430Z,102023.22
2022-11-12T23:37:36.300Z,102024.97
2022-11-12T23:40:04.172Z,102022.38
2022-11-12T23:42:32.036Z,102017.84
2022-11-12T23:44:59.907Z,102017.06
2022-11-12T23:47:27.809Z,102008.13
2022-11-12T23:49:55.767Z,102009.09
2022-11-12T23:52:25.059Z,101999.28
2022-11-12T23:54:52.913Z,101997.50
2022-11-12T23:57:20.768Z,102002.94
2022-11-12T23:59:48.737Z,101996.69
